sensor_id;sensor_type;location;lat;lon;timestamp;P1;durP1;ratioP1;P2;durP2;ratioP2
15913;SDS011;8055;51.930;8.840;2022-11-20T00:00:05;25.38;;;13.23;;
15913;SDS011;8055;51.930;8.840;2022-11-20T00:02:31;27.80;;;14.52;;
15913;SDS011;8055;51.930;8.840;2022-11-20T00:04:56;29.92;;;15.05;;
15913;SDS011;8055;51.930;8.840;2022-11-20T00:07:22;29.48;;;14.77;;
15913;SDS011;8055;51.930;8.840;2022-11-20T00:09:48;31.77;;;15.27;;
15913;SDS011;8055;51.930;8.840;2022-11-20T00:12:13;33.92;;;15.68;;
15913;SDS011;8055;51.930;8.840;2022-11-20T00:14:38;26.80;;;12.57;;
15913;SDS011;8055;51.930;8.840;2022-11-20T00:17:04;29.92;;;13.25;;
15913;SDS011;8055;51.930;8.840;2022-11-20T00:19:29;28.52;;;12.77;;
15913;SDS011;8055;51.930;8.840;2022-11-20T00:21:54;31.23;;;13.25;;
15913;SDS011;8055;51.930;8.840;2022-11-20T00:24:20;23.33;;;11.85;;
15913;SDS011;8055;51.930;8.840;2022-11-20T00:26:46;23.13;;;11.82;;
15913;SDS011;8055;51.930;8.840;2022-11-20T00:29:11;19.90;;;11.15;;
15913;SDS011;8055;51.930;8.840;2022-11-20T00:31:36;24.88;;;12.93;;
15913;SDS011;8055;51.930;8.840;2022-11-20T00:34:02;25.10;;;11.73;;
15913;SDS011;8055;51.930;8.840;2022-11-20T00:36:29;23.48;;;12.45;;
15913;SDS011;8055;51.930;8.840;2022-11-20T00:38:58;18.67;;;10.68;;
15913;SDS011;8055;51.930;8.840;2022-11-20T00:41:23;24.30;;;11.73;;
15913;SDS011;8055;51.930;8.840;2022-11-20T00:43:51;22.02;;;11.77;;
15913;SDS011;8055;51.930;8.840;2022-11-20T00:46:19;20.42;;;11.50;;
15913;SDS011;8055;51.930;8.840;2022-11-20T00:48:46;18.80;;;10.02;;
15913;SDS011;8055;51.930;8.840;2022-11-20T00:51:13;18.83;;;10.45;;
15913;SDS011;8055;51.930;8.840;2022-11-20T00:53:46;18.83;;;10.15;;
15913;SDS011;8055;51.930;8.840;2022-11-20T00:56:13;17.92;;;10.48;;
15913;SDS011;8055;51.930;8.840;2022-11-20T00:58:41;18.67;;;9.40;;
15913;SDS011;8055;51.930;8.840;2022-11-20T01:01:13;15.98;;;9.27;;
15913;SDS011;8055;51.930;8.840;2022-11-20T01:03:39;14.40;;;8.40;;
15913;SDS011;8055;51.930;8.840;2022-11-20T01:06:10;15.05;;;8.85;;
15913;SDS011;8055;51.930;8.840;2022-11-20T01:08:43;17.88;;;9.10;;
15913;SDS011;8055;51.930;8.840;2022-11-20T01:11:11;15.45;;;8.40;;
15913;SDS011;8055;51.930;8.840;2022-11-20T01:13:38;16.88;;;9.10;;
15913;SDS011;8055;51.930;8.840;2022-11-20T01:18:32;12.48;;;6.43;;
15913;SDS011;8055;51.930;8.840;2022-11-20T01:21:02;10.77;;;6.30;;
15913;SDS011;8055;51.930;8.840;2022-11-20T01:23:36;11.82;;;6.10;;
15913;SDS011;8055;51.930;8.840;2022-11-20T01:26:04;11.80;;;6.55;;
15913;SDS011;8055;51.930;8.840;2022-11-20T01:28:31;12.00;;;6.93;;
15913;SDS011;8055;51.930;8.840;2022-11-20T01:30:57;13.15;;;7.25;;
15913;SDS011;8055;51.930;8.840;2022-11-20T01:33:23;10.75;;;5.97;;
15913;SDS011;8055;51.930;8.840;2022-11-20T01:35:48;12.00;;;6.00;;
15913;SDS011;8055;51.930;8.840;2022-11-20T01:38:14;11.32;;;6.32;;
15913;SDS011;8055;51.930;8.840;2022-11-20T01:40:40;13.43;;;6.93;;
15913;SDS011;8055;51.930;8.840;2022-11-20T01:43:12;15.38;;;8.40;;
15913;SDS011;8055;51.930;8.840;2022-11-20T01:48:25;12.88;;;6.35;;
15913;SDS011;8055;51.930;8.840;2022-11-20T01:50:54;9.52;;;5.47;;
15913;SDS011;8055;51.930;8.840;2022-11-20T01:53:23;7.68;;;4.65;;
15913;SDS011;8055;51.930;8.840;2022-11-20T01:55:53;7.03;;;4.23;;
15913;SDS011;8055;51.930;8.840;2022-11-20T01:58:22;9.93;;;5.18;;
15913;SDS011;8055;51.930;8.840;2022-11-20T02:00:55;8.02;;;4.95;;
15913;SDS011;8055;51.930;8.840;2022-11-20T02:03:21;8.77;;;5.18;;
15913;SDS011;8055;51.930;8.840;2022-11-20T02:05:59;8.55;;;5.72;;
15913;SDS011;8055;51.930;8.840;2022-11-20T02:08:30;10.55;;;5.55;;
15913;SDS011;8055;51.930;8.840;2022-11-20T02:10:57;10.15;;;6.40;;
15913;SDS011;8055;51.930;8.840;2022-11-20T02:13:22;11.75;;;6.50;;
15913;SDS011;8055;51.930;8.840;2022-11-20T02:16:08;13.63;;;6.47;;
15913;SDS011;8055;51.930;8.840;2022-11-20T02:18:36;12.20;;;6.82;;
15913;SDS011;8055;51.930;8.840;2022-11-20T02:21:07;13.38;;;7.03;;
15913;SDS011;8055;51.930;8.840;2022-11-20T02:23:51;12.48;;;7.22;;
15913;SDS011;8055;51.930;8.840;2022-11-20T02:26:32;11.18;;;6.38;;
15913;SDS011;8055;51.930;8.840;2022-11-20T02:29:02;12.85;;;6.68;;
15913;SDS011;8055;51.930;8.840;2022-11-20T02:31:28;12.38;;;6.78;;
15913;SDS011;8055;51.930;8.840;2022-11-20T02:33:54;11.90;;;6.53;;
15913;SDS011;8055;51.930;8.840;2022-11-20T02:36:21;11.18;;;6.63;;
15913;SDS011;8055;51.930;8.840;2022-11-20T02:38:47;9.45;;;5.80;;
15913;SDS011;8055;51.930;8.840;2022-11-20T02:41:14;12.20;;;6.18;;
15913;SDS011;8055;51.930;8.840;2022-11-20T02:43:39;8.38;;;4.95;;
15913;SDS011;8055;51.930;8.840;2022-11-20T02:46:06;11.70;;;5.45;;
15913;SDS011;8055;51.930;8.840;2022-11-20T02:48:32;8.82;;;4.55;;
15913;SDS011;8055;51.930;8.840;2022-11-20T02:50:57;7.97;;;4.88;;
15913;SDS011;8055;51.930;8.840;2022-11-20T02:53:23;9.43;;;5.60;;
15913;SDS011;8055;51.930;8.840;2022-11-20T02:55:48;8.40;;;4.82;;
15913;SDS011;8055;51.930;8.840;2022-11-20T02:58:13;7.72;;;4.93;;
15913;SDS011;8055;51.930;8.840;2022-11-20T03:00:39;6.63;;;4.45;;
15913;SDS011;8055;51.930;8.840;2022-11-20T03:03:04;7.55;;;4.32;;
15913;SDS011;8055;51.930;8.840;2022-11-20T03:05:29;8.32;;;4.57;;
15913;SDS011;8055;51.930;8.840;2022-11-20T03:07:55;7.65;;;4.72;;
15913;SDS011;8055;51.930;8.840;2022-11-20T03:10:20;9.10;;;5.30;;
15913;SDS011;8055;51.930;8.840;2022-11-20T03:12:45;7.07;;;4.25;;
15913;SDS011;8055;51.930;8.840;2022-11-20T03:15:11;9.75;;;5.47;;
15913;SDS011;8055;51.930;8.840;2022-11-20T03:17:36;9.65;;;5.78;;
15913;SDS011;8055;51.930;8.840;2022-11-20T03:20:02;7.38;;;5.28;;
15913;SDS011;8055;51.930;8.840;2022-11-20T03:22:28;9.05;;;6.05;;
15913;SDS011;8055;51.930;8.840;2022-11-20T03:24:54;10.20;;;6.68;;
15913;SDS011;8055;51.930;8.840;2022-11-20T03:27:20;11.68;;;7.25;;
15913;SDS011;8055;51.930;8.840;2022-11-20T03:29:45;11.75;;;7.43;;
15913;SDS011;8055;51.930;8.840;2022-11-20T03:32:11;12.27;;;7.53;;
15913;SDS011;8055;51.930;8.840;2022-11-20T03:34:36;14.93;;;7.88;;
15913;SDS011;8055;51.930;8.840;2022-11-20T03:37:01;13.43;;;7.40;;
15913;SDS011;8055;51.930;8.840;2022-11-20T03:39:27;17.60;;;9.18;;
15913;SDS011;8055;51.930;8.840;2022-11-20T03:41:52;14.23;;;7.82;;
15913;SDS011;8055;51.930;8.840;2022-11-20T03:44:17;13.15;;;7.47;;
15913;SDS011;8055;51.930;8.840;2022-11-20T03:46:46;19.95;;;8.32;;
15913;SDS011;8055;51.930;8.840;2022-11-20T03:49:11;13.82;;;8.07;;
15913;SDS011;8055;51.930;8.840;2022-11-20T03:51:37;13.38;;;7.32;;
15913;SDS011;8055;51.930;8.840;2022-11-20T03:54:03;13.55;;;8.20;;
15913;SDS011;8055;51.930;8.840;2022-11-20T03:56:31;15.32;;;8.02;;
15913;SDS011;8055;51.930;8.840;2022-11-20T03:58:59;17.70;;;9.20;;
15913;SDS011;8055;51.930;8.840;2022-11-20T04:01:25;22.92;;;9.00;;
15913;SDS011;8055;51.930;8.840;2022-11-20T04:03:53;15.40;;;8.82;;
15913;SDS011;8055;51.930;8.840;2022-11-20T04:06:23;15.63;;;9.43;;
15913;SDS011;8055;51.930;8.840;2022-11-20T04:08:54;17.15;;;10.32;;
15913;SDS011;8055;51.930;8.840;2022-11-20T04:11:21;15.50;;;9.00;;
15913;SDS011;8055;51.930;8.840;2022-11-20T04:13:50;14.98;;;8.80;;
15913;SDS011;8055;51.930;8.840;2022-11-20T04:16:20;17.73;;;9.55;;
15913;SDS011;8055;51.930;8.840;2022-11-20T04:18:46;17.27;;;10.40;;
15913;SDS011;8055;51.930;8.840;2022-11-20T04:21:12;16.98;;;10.05;;
15913;SDS011;8055;51.930;8.840;2022-11-20T04:23:37;19.85;;;9.88;;
15913;SDS011;8055;51.930;8.840;2022-11-20T04:26:04;17.10;;;9.70;;
15913;SDS011;8055;51.930;8.840;2022-11-20T04:28:32;16.90;;;9.90;;
15913;SDS011;8055;51.930;8.840;2022-11-20T04:31:04;16.05;;;9.55;;
15913;SDS011;8055;51.930;8.840;2022-11-20T04:33:34;18.05;;;9.57;;
15913;SDS011;8055;51.930;8.840;2022-11-20T04:36:05;17.88;;;10.98;;
15913;SDS011;8055;51.930;8.840;2022-11-20T04:38:32;17.90;;;10.38;;
15913;SDS011;8055;51.930;8.840;2022-11-20T04:40:58;19.27;;;10.38;;
15913;SDS011;8055;51.930;8.840;2022-11-20T04:43:25;21.40;;;11.18;;
15913;SDS011;8055;51.930;8.840;2022-11-20T04:45:51;18.40;;;10.60;;
15913;SDS011;8055;51.930;8.840;2022-11-20T04:48:18;21.45;;;11.18;;
15913;SDS011;8055;51.930;8.840;2022-11-20T04:50:43;20.92;;;11.10;;
15913;SDS011;8055;51.930;8.840;2022-11-20T04:53:09;19.98;;;11.20;;
15913;SDS011;8055;51.930;8.840;2022-11-20T04:55:34;21.15;;;11.88;;
15913;SDS011;8055;51.930;8.840;2022-11-20T04:57:59;19.17;;;11.45;;
15913;SDS011;8055;51.930;8.840;2022-11-20T05:00:24;21.33;;;11.88;;
15913;SDS011;8055;51.930;8.840;2022-11-20T05:02:50;16.95;;;10.23;;
15913;SDS011;8055;51.930;8.840;2022-11-20T05:05:15;18.15;;;9.50;;
15913;SDS011;8055;51.930;8.840;2022-11-20T05:07:40;12.20;;;7.38;;
15913;SDS011;8055;51.930;8.840;2022-11-20T05:10:06;13.23;;;7.70;;
15913;SDS011;8055;51.930;8.840;2022-11-20T05:12:32;12.82;;;7.43;;
15913;SDS011;8055;51.930;8.840;2022-11-20T05:14:57;12.82;;;7.93;;
15913;SDS011;8055;51.930;8.840;2022-11-20T05:17:22;10.25;;;6.30;;
15913;SDS011;8055;51.930;8.840;2022-11-20T05:19:47;10.90;;;6.18;;
15913;SDS011;8055;51.930;8.840;2022-11-20T05:22:13;11.75;;;6.13;;
15913;SDS011;8055;51.930;8.840;2022-11-20T05:24:38;6.80;;;4.60;;
15913;SDS011;8055;51.930;8.840;2022-11-20T05:27:04;10.32;;;4.50;;
15913;SDS011;8055;51.930;8.840;2022-11-20T05:29:29;7.82;;;4.53;;
15913;SDS011;8055;51.930;8.840;2022-11-20T05:31:54;5.00;;;3.78;;
15913;SDS011;8055;51.930;8.840;2022-11-20T05:34:20;6.00;;;4.07;;
15913;SDS011;8055;51.930;8.840;2022-11-20T05:36:45;7.18;;;3.78;;
15913;SDS011;8055;51.930;8.840;2022-11-20T05:39:10;7.20;;;4.18;;
15913;SDS011;8055;51.930;8.840;2022-11-20T05:41:36;9.68;;;5.00;;
15913;SDS011;8055;51.930;8.840;2022-11-20T05:44:01;8.40;;;5.22;;
15913;SDS011;8055;51.930;8.840;2022-11-20T05:46:27;7.10;;;4.00;;
15913;SDS011;8055;51.930;8.840;2022-11-20T05:48:52;9.52;;;5.10;;
15913;SDS011;8055;51.930;8.840;2022-11-20T05:51:18;14.63;;;6.63;;
15913;SDS011;8055;51.930;8.840;2022-11-20T05:53:44;13.93;;;6.82;;
15913;SDS011;8055;51.930;8.840;2022-11-20T05:56:11;11.05;;;6.13;;
15913;SDS011;8055;51.930;8.840;2022-11-20T05:58:38;11.88;;;5.95;;
15913;SDS011;8055;51.930;8.840;2022-11-20T06:01:05;10.10;;;6.10;;
15913;SDS011;8055;51.930;8.840;2022-11-20T06:03:40;14.48;;;8.25;;
15913;SDS011;8055;51.930;8.840;2022-11-20T06:06:16;16.42;;;8.93;;
15913;SDS011;8055;51.930;8.840;2022-11-20T06:08:43;15.75;;;8.70;;
15913;SDS011;8055;51.930;8.840;2022-11-20T06:11:09;19.98;;;9.60;;
15913;SDS011;8055;51.930;8.840;2022-11-20T06:13:36;16.75;;;9.55;;
15913;SDS011;8055;51.930;8.840;2022-11-20T06:16:02;18.58;;;10.13;;
15913;SDS011;8055;51.930;8.840;2022-11-20T06:18:28;22.20;;;11.25;;
15913;SDS011;8055;51.930;8.840;2022-11-20T06:21:00;21.88;;;10.55;;
15913;SDS011;8055;51.930;8.840;2022-11-20T06:23:28;22.85;;;10.75;;
15913;SDS011;8055;51.930;8.840;2022-11-20T06:25:55;20.63;;;11.57;;
15913;SDS011;8055;51.930;8.840;2022-11-20T06:28:20;19.30;;;10.98;;
15913;SDS011;8055;51.930;8.840;2022-11-20T06:30:47;18.10;;;10.77;;
15913;SDS011;8055;51.930;8.840;2022-11-20T06:33:12;23.27;;;13.55;;
15913;SDS011;8055;51.930;8.840;2022-11-20T06:35:37;26.02;;;12.77;;
15913;SDS011;8055;51.930;8.840;2022-11-20T06:38:03;23.88;;;13.00;;
15913;SDS011;8055;51.930;8.840;2022-11-20T06:40:28;27.45;;;13.40;;
15913;SDS011;8055;51.930;8.840;2022-11-20T06:42:54;24.38;;;13.07;;
15913;SDS011;8055;51.930;8.840;2022-11-20T06:45:20;21.77;;;13.20;;
15913;SDS011;8055;51.930;8.840;2022-11-20T06:47:45;23.05;;;13.25;;
15913;SDS011;8055;51.930;8.840;2022-11-20T06:50:11;28.67;;;14.05;;
15913;SDS011;8055;51.930;8.840;2022-11-20T06:52:36;28.13;;;15.10;;
15913;SDS011;8055;51.930;8.840;2022-11-20T06:55:01;26.90;;;14.77;;
15913;SDS011;8055;51.930;8.840;2022-11-20T06:57:27;30.83;;;16.10;;
15913;SDS011;8055;51.930;8.840;2022-11-20T06:59:52;24.05;;;14.55;;
15913;SDS011;8055;51.930;8.840;2022-11-20T07:02:17;29.27;;;15.52;;
15913;SDS011;8055;51.930;8.840;2022-11-20T07:04:43;25.15;;;13.60;;
15913;SDS011;8055;51.930;8.840;2022-11-20T07:07:08;30.05;;;15.73;;
15913;SDS011;8055;51.930;8.840;2022-11-20T07:09:33;27.90;;;15.73;;
15913;SDS011;8055;51.930;8.840;2022-11-20T07:11:59;32.13;;;16.35;;
15913;SDS011;8055;51.930;8.840;2022-11-20T07:14:25;27.23;;;14.73;;
15913;SDS011;8055;51.930;8.840;2022-11-20T07:16:50;27.35;;;14.02;;
15913;SDS011;8055;51.930;8.840;2022-11-20T07:19:16;30.40;;;15.38;;
15913;SDS011;8055;51.930;8.840;2022-11-20T07:21:41;21.80;;;12.68;;
15913;SDS011;8055;51.930;8.840;2022-11-20T07:24:06;22.95;;;13.55;;
15913;SDS011;8055;51.930;8.840;2022-11-20T07:26:32;24.75;;;13.90;;
15913;SDS011;8055;51.930;8.840;2022-11-20T07:28:57;28.15;;;14.68;;
15913;SDS011;8055;51.930;8.840;2022-11-20T07:31:23;26.67;;;14.43;;
15913;SDS011;8055;51.930;8.840;2022-11-20T07:33:48;31.35;;;15.05;;
15913;SDS011;8055;51.930;8.840;2022-11-20T07:36:14;28.60;;;14.55;;
15913;SDS011;8055;51.930;8.840;2022-11-20T07:38:39;32.38;;;16.52;;
15913;SDS011;8055;51.930;8.840;2022-11-20T07:41:05;35.28;;;17.88;;
15913;SDS011;8055;51.930;8.840;2022-11-20T07:43:30;35.03;;;17.25;;
15913;SDS011;8055;51.930;8.840;2022-11-20T07:45:58;36.75;;;17.38;;
15913;SDS011;8055;51.930;8.840;2022-11-20T07:48:24;29.83;;;16.35;;
15913;SDS011;8055;51.930;8.840;2022-11-20T07:50:53;32.10;;;16.08;;
15913;SDS011;8055;51.930;8.840;2022-11-20T07:53:19;31.95;;;16.30;;
15913;SDS011;8055;51.930;8.840;2022-11-20T07:55:46;36.47;;;17.92;;
15913;SDS011;8055;51.930;8.840;2022-11-20T07:58:12;32.72;;;16.92;;
15913;SDS011;8055;51.930;8.840;2022-11-20T08:00:39;28.60;;;15.45;;
15913;SDS011;8055;51.930;8.840;2022-11-20T08:03:04;33.20;;;16.30;;
15913;SDS011;8055;51.930;8.840;2022-11-20T08:05:30;29.75;;;14.95;;
15913;SDS011;8055;51.930;8.840;2022-11-20T08:07:55;30.55;;;15.90;;
15913;SDS011;8055;51.930;8.840;2022-11-20T08:10:21;28.85;;;16.50;;
15913;SDS011;8055;51.930;8.840;2022-11-20T08:12:47;36.47;;;20.73;;
15913;SDS011;8055;51.930;8.840;2022-11-20T08:15:32;32.38;;;17.50;;
15913;SDS011;8055;51.930;8.840;2022-11-20T08:18:01;32.63;;;17.55;;
15913;SDS011;8055;51.930;8.840;2022-11-20T08:20:31;30.75;;;19.30;;
15913;SDS011;8055;51.930;8.840;2022-11-20T08:22:58;29.98;;;16.23;;
15913;SDS011;8055;51.930;8.840;2022-11-20T08:25:25;27.73;;;14.30;;
15913;SDS011;8055;51.930;8.840;2022-11-20T08:27:50;26.13;;;14.55;;
15913;SDS011;8055;51.930;8.840;2022-11-20T08:30:16;27.48;;;14.60;;
15913;SDS011;8055;51.930;8.840;2022-11-20T08:32:41;28.45;;;14.27;;
15913;SDS011;8055;51.930;8.840;2022-11-20T08:35:07;28.45;;;16.05;;
15913;SDS011;8055;51.930;8.840;2022-11-20T08:37:32;28.55;;;16.25;;
15913;SDS011;8055;51.930;8.840;2022-11-20T08:39:58;33.10;;;19.35;;
15913;SDS011;8055;51.930;8.840;2022-11-20T08:42:23;26.40;;;14.30;;
15913;SDS011;8055;51.930;8.840;2022-11-20T08:44:49;24.58;;;13.55;;
15913;SDS011;8055;51.930;8.840;2022-11-20T08:47:14;27.73;;;14.20;;
15913;SDS011;8055;51.930;8.840;2022-11-20T08:49:39;24.60;;;14.05;;
15913;SDS011;8055;51.930;8.840;2022-11-20T08:52:05;22.80;;;13.02;;
15913;SDS011;8055;51.930;8.840;2022-11-20T08:54:30;23.85;;;13.93;;
15913;SDS011;8055;51.930;8.840;2022-11-20T08:56:56;24.40;;;13.60;;
15913;SDS011;8055;51.930;8.840;2022-11-20T08:59:22;24.02;;;13.30;;
15913;SDS011;8055;51.930;8.840;2022-11-20T09:01:48;23.58;;;13.70;;
15913;SDS011;8055;51.930;8.840;2022-11-20T09:04:13;21.95;;;12.18;;
15913;SDS011;8055;51.930;8.840;2022-11-20T09:06:39;23.25;;;12.70;;
15913;SDS011;8055;51.930;8.840;2022-11-20T09:09:05;21.95;;;12.60;;
15913;SDS011;8055;51.930;8.840;2022-11-20T09:11:30;19.77;;;11.65;;
15913;SDS011;8055;51.930;8.840;2022-11-20T09:13:56;24.00;;;12.35;;
15913;SDS011;8055;51.930;8.840;2022-11-20T09:16:22;18.65;;;11.25;;
15913;SDS011;8055;51.930;8.840;2022-11-20T09:18:49;21.23;;;11.80;;
15913;SDS011;8055;51.930;8.840;2022-11-20T09:21:15;25.38;;;13.98;;
15913;SDS011;8055;51.930;8.840;2022-11-20T09:23:40;23.00;;;13.48;;
15913;SDS011;8055;51.930;8.840;2022-11-20T09:26:07;21.83;;;12.45;;
15913;SDS011;8055;51.930;8.840;2022-11-20T09:28:34;24.25;;;13.60;;
15913;SDS011;8055;51.930;8.840;2022-11-20T09:31:00;23.08;;;12.75;;
15913;SDS011;8055;51.930;8.840;2022-11-20T09:33:26;22.98;;;12.75;;
15913;SDS011;8055;51.930;8.840;2022-11-20T09:35:52;23.10;;;13.00;;
15913;SDS011;8055;51.930;8.840;2022-11-20T09:38:17;24.83;;;14.40;;
15913;SDS011;8055;51.930;8.840;2022-11-20T09:40:44;25.92;;;14.70;;
15913;SDS011;8055;51.930;8.840;2022-11-20T09:51:56;18.80;;;10.73;;
15913;SDS011;8055;51.930;8.840;2022-11-20T09:54:41;20.17;;;11.80;;
15913;SDS011;8055;51.930;8.840;2022-11-20T09:57:09;18.42;;;11.25;;
15913;SDS011;8055;51.930;8.840;2022-11-20T09:59:39;18.00;;;10.48;;
15913;SDS011;8055;51.930;8.840;2022-11-20T10:02:27;17.52;;;10.00;;
15913;SDS011;8055;51.930;8.840;2022-11-20T10:26:57;14.50;;;8.25;;
15913;SDS011;8055;51.930;8.840;2022-11-20T10:29:43;12.32;;;8.15;;
15913;SDS011;8055;51.930;8.840;2022-11-20T10:32:15;14.35;;;8.43;;
15913;SDS011;8055;51.930;8.840;2022-11-20T10:34:50;12.57;;;7.78;;
15913;SDS011;8055;51.930;8.840;2022-11-20T10:37:24;10.95;;;7.13;;
15913;SDS011;8055;51.930;8.840;2022-11-20T10:42:52;12.50;;;7.28;;
15913;SDS011;8055;51.930;8.840;2022-11-20T10:47:49;20.10;;;11.25;;
15913;SDS011;8055;51.930;8.840;2022-11-20T10:50:18;11.55;;;7.40;;
15913;SDS011;8055;51.930;8.840;2022-11-20T10:55:39;11.75;;;7.80;;
15913;SDS011;8055;51.930;8.840;2022-11-20T10:58:10;12.13;;;8.15;;
15913;SDS011;8055;51.930;8.840;2022-11-20T11:00:37;12.27;;;7.50;;
15913;SDS011;8055;51.930;8.840;2022-11-20T11:03:07;12.85;;;7.68;;
15913;SDS011;8055;51.930;8.840;2022-11-20T11:06:00;10.57;;;6.95;;
15913;SDS011;8055;51.930;8.840;2022-11-20T11:08:35;11.05;;;7.25;;
15913;SDS011;8055;51.930;8.840;2022-11-20T11:11:23;10.57;;;7.40;;
15913;SDS011;8055;51.930;8.840;2022-11-20T11:13:53;10.18;;;7.18;;
15913;SDS011;8055;51.930;8.840;2022-11-20T11:16:29;10.98;;;7.10;;
15913;SDS011;8055;51.930;8.840;2022-11-20T11:19:11;10.65;;;7.00;;
15913;SDS011;8055;51.930;8.840;2022-11-20T11:21:38;15.93;;;9.60;;
15913;SDS011;8055;51.930;8.840;2022-11-20T11:24:14;12.65;;;7.82;;
15913;SDS011;8055;51.930;8.840;2022-11-20T11:26:56;10.77;;;6.60;;
15913;SDS011;8055;51.930;8.840;2022-11-20T11:29:21;19.58;;;10.23;;
15913;SDS011;8055;51.930;8.840;2022-11-20T11:31:46;10.45;;;7.22;;
15913;SDS011;8055;51.930;8.840;2022-11-20T11:34:13;34.85;;;15.85;;
15913;SDS011;8055;51.930;8.840;2022-11-20T11:36:39;13.50;;;8.52;;
15913;SDS011;8055;51.930;8.840;2022-11-20T11:39:06;11.73;;;7.82;;
15913;SDS011;8055;51.930;8.840;2022-11-20T11:41:39;9.63;;;6.35;;
15913;SDS011;8055;51.930;8.840;2022-11-20T11:47:12;9.93;;;6.78;;
15913;SDS011;8055;51.930;8.840;2022-11-20T11:49:47;9.90;;;6.85;;
15913;SDS011;8055;51.930;8.840;2022-11-20T11:52:15;13.63;;;8.90;;
15913;SDS011;8055;51.930;8.840;2022-11-20T11:54:56;12.23;;;7.75;;
15913;SDS011;8055;51.930;8.840;2022-11-20T11:57:41;13.32;;;8.05;;
15913;SDS011;8055;51.930;8.840;2022-11-20T12:00:13;12.35;;;7.53;;
15913;SDS011;8055;51.930;8.840;2022-11-20T12:03:02;11.43;;;7.13;;
15913;SDS011;8055;51.930;8.840;2022-11-20T12:05:38;14.63;;;7.72;;
15913;SDS011;8055;51.930;8.840;2022-11-20T12:08:24;9.57;;;6.13;;
15913;SDS011;8055;51.930;8.840;2022-11-20T12:13:47;12.75;;;7.32;;
15913;SDS011;8055;51.930;8.840;2022-11-20T12:16:18;10.88;;;6.47;;
15913;SDS011;8055;51.930;8.840;2022-11-20T12:18:47;11.45;;;6.82;;
15913;SDS011;8055;51.930;8.840;2022-11-20T12:34:22;17.30;;;8.23;;
15913;SDS011;8055;51.930;8.840;2022-11-20T12:36:56;14.07;;;8.70;;
15913;SDS011;8055;51.930;8.840;2022-11-20T12:39:51;16.60;;;9.63;;
15913;SDS011;8055;51.930;8.840;2022-11-20T13:01:47;18.38;;;11.07;;
15913;SDS011;8055;51.930;8.840;2022-11-20T13:07:38;18.40;;;10.68;;
15913;SDS011;8055;51.930;8.840;2022-11-20T13:10:05;17.73;;;10.23;;
15913;SDS011;8055;51.930;8.840;2022-11-20T13:12:45;19.80;;;11.00;;
15913;SDS011;8055;51.930;8.840;2022-11-20T13:15:31;21.35;;;12.27;;
15913;SDS011;8055;51.930;8.840;2022-11-20T13:18:06;18.88;;;11.20;;
15913;SDS011;8055;51.930;8.840;2022-11-20T13:20:34;19.40;;;10.98;;
15913;SDS011;8055;51.930;8.840;2022-11-20T13:23:01;22.63;;;12.02;;
15913;SDS011;8055;51.930;8.840;2022-11-20T13:25:28;23.88;;;13.60;;
15913;SDS011;8055;51.930;8.840;2022-11-20T13:27:55;21.98;;;12.27;;
15913;SDS011;8055;51.930;8.840;2022-11-20T13:30:24;23.20;;;12.90;;
15913;SDS011;8055;51.930;8.840;2022-11-20T13:33:37;20.63;;;12.23;;
15913;SDS011;8055;51.930;8.840;2022-11-20T13:35:55;20.27;;;11.80;;
15913;SDS011;8055;51.930;8.840;2022-11-20T13:38:49;20.85;;;11.13;;
15913;SDS011;8055;51.930;8.840;2022-11-20T13:41:26;18.73;;;11.32;;
15913;SDS011;8055;51.930;8.840;2022-11-20T13:44:05;22.90;;;12.35;;
15913;SDS011;8055;51.930;8.840;2022-11-20T13:49:06;21.10;;;12.40;;
15913;SDS011;8055;51.930;8.840;2022-11-20T13:51:37;19.67;;;11.20;;
15913;SDS011;8055;51.930;8.840;2022-11-20T14:00:08;20.20;;;11.88;;
15913;SDS011;8055;51.930;8.840;2022-11-20T14:02:41;25.77;;;12.52;;
15913;SDS011;8055;51.930;8.840;2022-11-20T14:05:28;23.45;;;12.90;;
15913;SDS011;8055;51.930;8.840;2022-11-20T14:07:55;21.90;;;12.25;;
15913;SDS011;8055;51.930;8.840;2022-11-20T14:10:31;25.30;;;13.75;;
15913;SDS011;8055;51.930;8.840;2022-11-20T14:12:57;20.95;;;11.70;;
15913;SDS011;8055;51.930;8.840;2022-11-20T14:15:27;20.95;;;11.63;;
15913;SDS011;8055;51.930;8.840;2022-11-20T14:17:58;19.15;;;12.13;;
15913;SDS011;8055;51.930;8.840;2022-11-20T14:20:28;19.05;;;10.75;;
15913;SDS011;8055;51.930;8.840;2022-11-20T14:22:56;21.20;;;12.05;;
15913;SDS011;8055;51.930;8.840;2022-11-20T14:25:25;20.85;;;11.70;;
15913;SDS011;8055;51.930;8.840;2022-11-20T14:27:59;19.98;;;11.10;;
15913;SDS011;8055;51.930;8.840;2022-11-20T14:30:38;20.92;;;11.50;;
15913;SDS011;8055;51.930;8.840;2022-11-20T14:33:09;22.58;;;12.43;;
15913;SDS011;8055;51.930;8.840;2022-11-20T14:35:40;20.65;;;12.35;;
15913;SDS011;8055;51.930;8.840;2022-11-20T14:38:11;19.33;;;10.95;;
15913;SDS011;8055;51.930;8.840;2022-11-20T14:40:39;20.33;;;11.50;;
15913;SDS011;8055;51.930;8.840;2022-11-20T14:43:26;21.67;;;11.60;;
15913;SDS011;8055;51.930;8.840;2022-11-20T14:45:58;20.33;;;11.50;;
15913;SDS011;8055;51.930;8.840;2022-11-20T14:54:14;21.70;;;11.80;;
15913;SDS011;8055;51.930;8.840;2022-11-20T14:56:41;23.52;;;12.93;;
15913;SDS011;8055;51.930;8.840;2022-11-20T14:59:22;20.98;;;12.60;;
15913;SDS011;8055;51.930;8.840;2022-11-20T15:01:56;21.35;;;12.77;;
15913;SDS011;8055;51.930;8.840;2022-11-20T15:04:28;20.70;;;11.88;;
15913;SDS011;8055;51.930;8.840;2022-11-20T15:06:54;20.40;;;11.20;;
15913;SDS011;8055;51.930;8.840;2022-11-20T15:09:22;18.02;;;11.38;;
15913;SDS011;8055;51.930;8.840;2022-11-20T15:11:52;19.70;;;12.15;;
15913;SDS011;8055;51.930;8.840;2022-11-20T15:14:23;34.20;;;16.98;;
15913;SDS011;8055;51.930;8.840;2022-11-20T15:16:50;31.23;;;16.25;;
15913;SDS011;8055;51.930;8.840;2022-11-20T15:19:17;22.23;;;13.73;;
15913;SDS011;8055;51.930;8.840;2022-11-20T15:21:45;25.23;;;14.48;;
15913;SDS011;8055;51.930;8.840;2022-11-20T15:24:11;20.67;;;12.18;;
15913;SDS011;8055;51.930;8.840;2022-11-20T15:26:36;20.05;;;12.40;;
15913;SDS011;8055;51.930;8.840;2022-11-20T15:29:08;24.00;;;13.27;;
15913;SDS011;8055;51.930;8.840;2022-11-20T15:31:35;19.98;;;11.18;;
15913;SDS011;8055;51.930;8.840;2022-11-20T15:34:01;18.85;;;11.57;;
15913;SDS011;8055;51.930;8.840;2022-11-20T15:36:26;20.95;;;13.82;;
15913;SDS011;8055;51.930;8.840;2022-11-20T15:38:52;21.13;;;11.77;;
15913;SDS011;8055;51.930;8.840;2022-11-20T15:41:17;22.40;;;13.30;;
15913;SDS011;8055;51.930;8.840;2022-11-20T15:43:42;21.30;;;12.60;;
15913;SDS011;8055;51.930;8.840;2022-11-20T15:46:12;21.52;;;13.25;;
15913;SDS011;8055;51.930;8.840;2022-11-20T15:48:48;19.48;;;12.65;;
15913;SDS011;8055;51.930;8.840;2022-11-20T15:51:26;23.60;;;14.68;;
15913;SDS011;8055;51.930;8.840;2022-11-20T15:53:57;19.05;;;12.32;;
15913;SDS011;8055;51.930;8.840;2022-11-20T15:56:23;20.40;;;12.18;;
15913;SDS011;8055;51.930;8.840;2022-11-20T15:58:49;21.05;;;12.25;;
15913;SDS011;8055;51.930;8.840;2022-11-20T16:01:18;22.90;;;14.13;;
15913;SDS011;8055;51.930;8.840;2022-11-20T16:03:45;30.10;;;16.48;;
15913;SDS011;8055;51.930;8.840;2022-11-20T16:06:11;27.60;;;16.40;;
15913;SDS011;8055;51.930;8.840;2022-11-20T16:08:36;26.35;;;15.98;;
15913;SDS011;8055;51.930;8.840;2022-11-20T16:11:02;30.50;;;18.35;;
15913;SDS011;8055;51.930;8.840;2022-11-20T16:13:28;31.35;;;17.73;;
15913;SDS011;8055;51.930;8.840;2022-11-20T16:16:19;28.00;;;16.10;;
15913;SDS011;8055;51.930;8.840;2022-11-20T16:18:48;25.65;;;15.88;;
15913;SDS011;8055;51.930;8.840;2022-11-20T16:21:14;27.02;;;15.98;;
15913;SDS011;8055;51.930;8.840;2022-11-20T16:23:40;25.52;;;16.30;;
15913;SDS011;8055;51.930;8.840;2022-11-20T16:26:15;27.38;;;17.10;;
15913;SDS011;8055;51.930;8.840;2022-11-20T16:28:42;26.58;;;17.55;;